sensor_id;sensor_type;location;lat;lon;timestamp;temperature;humidity
20370;DHT22;10344;47.592;9.600;2023-07-09T07:55:11;33.40;99.90
20370;DHT22;10344;47.592;9.600;2023-07-09T07:57:39;33.00;99.90
20370;DHT22;10344;47.592;9.600;2023-07-09T08:00:05;32.50;99.90
20370;DHT22;10344;47.592;9.600;2023-07-09T08:02:38;32.60;99.90
20370;DHT22;10344;47.592;9.600;2023-07-09T08:05:04;32.80;99.90
20370;DHT22;10344;47.592;9.600;2023-07-09T08:07:31;32.80;99.90
20370;DHT22;10344;47.592;9.600;2023-07-09T08:09:59;33.10;99.90
20370;DHT22;10344;47.592;9.600;2023-07-09T08:12:25;33.50;99.70
20370;DHT22;10344;47.592;9.600;2023-07-09T08:14:50;33.40;99.50
20370;DHT22;10344;47.592;9.600;2023-07-09T08:17:16;33.50;99.10
20370;DHT22;10344;47.592;9.600;2023-07-09T08:19:48;33.70;99.10
20370;DHT22;10344;47.592;9.600;2023-07-09T08:22:17;34.10;99.40
20370;DHT22;10344;47.592;9.600;2023-07-09T08:24:42;34.40;98.60
20370;DHT22;10344;47.592;9.600;2023-07-09T08:27:08;34.40;97.90
20370;DHT22;10344;47.592;9.600;2023-07-09T08:29:34;34.50;96.90
20370;DHT22;10344;47.592;9.600;2023-07-09T08:32:00;34.50;97.10
20370;DHT22;10344;47.592;9.600;2023-07-09T08:34:25;34.60;98.30
20370;DHT22;10344;47.592;9.600;2023-07-09T08:36:53;34.90;96.50
20370;DHT22;10344;47.592;9.600;2023-07-09T08:39:19;34.50;96.60
20370;DHT22;10344;47.592;9.600;2023-07-09T08:41:53;34.50;99.40
20370;DHT22;10344;47.592;9.600;2023-07-09T08:47:51;34.30;99.90
20370;DHT22;10344;47.592;9.600;2023-07-09T08:50:24;34.40;99.20
20370;DHT22;10344;47.592;9.600;2023-07-09T08:52:51;34.50;99.80
20370;DHT22;10344;47.592;9.600;2023-07-09T08:57:58;34.30;99.90
20370;DHT22;10344;47.592;9.600;2023-07-09T09:00:47;34.10;99.90
20370;DHT22;10344;47.592;9.600;2023-07-09T09:05:43;33.50;99.90
20370;DHT22;10344;47.592;9.600;2023-07-09T09:13:28;32.90;99.90
20370;DHT22;10344;47.592;9.600;2023-07-09T09:16:01;32.70;99.90
20370;DHT22;10344;47.592;9.600;2023-07-09T09:18:28;32.30;99.90
20370;DHT22;10344;47.592;9.600;2023-07-09T09:23:39;32.10;99.90
20370;DHT22;10344;47.592;9.600;2023-07-09T09:26:09;31.90;99.90
20370;DHT22;10344;47.592;9.600;2023-07-09T09:28:41;32.20;99.90
20370;DHT22;10344;47.592;9.600;2023-07-09T09:31:08;32.40;99.90
20370;DHT22;10344;47.592;9.600;2023-07-09T09:33:41;32.60;99.90
20370;DHT22;10344;47.592;9.600;2023-07-09T09:36:14;32.60;99.90
20370;DHT22;10344;47.592;9.600;2023-07-09T09:38:42;32.70;99.90
20370;DHT22;10344;47.592;9.600;2023-07-09T09:41:18;32.80;99.90
20370;DHT22;10344;47.592;9.600;2023-07-09T09:43:44;32.80;99.90
20370;DHT22;10344;47.592;9.600;2023-07-09T09:46:13;32.70;99.90
20370;DHT22;10344;47.592;9.600;2023-07-09T09:48:44;32.40;99.90
20370;DHT22;10344;47.592;9.600;2023-07-09T09:51:09;32.30;99.90
20370;DHT22;10344;47.592;9.600;2023-07-09T09:53:37;32.60;99.90
20370;DHT22;10344;47.592;9.600;2023-07-09T09:56:06;32.60;99.90
20370;DHT22;10344;47.592;9.600;2023-07-09T09:58:39;32.50;99.90
20370;DHT22;10344;47.592;9.600;2023-07-09T10:01:11;32.40;99.90
20370;DHT22;10344;47.592;9.600;2023-07-09T10:03:39;32.40;99.90
20370;DHT22;10344;47.592;9.600;2023-07-09T10:06:16;32.50;99.90
20370;DHT22;10344;47.592;9.600;2023-07-09T10:13:47;33.00;99.90
20370;DHT22;10344;47.592;9.600;2023-07-09T10:16:27;33.10;99.90
20370;DHT22;10344;47.592;9.600;2023-07-09T10:19:01;33.20;99.90
20370;DHT22;10344;47.592;9.600;2023-07-09T10:21:31;33.00;99.90
20370;DHT22;10344;47.592;9.600;2023-07-09T10:26:45;32.50;99.90
20370;DHT22;10344;47.592;9.600;2023-07-09T10:39:26;32.70;99.90
20370;DHT22;10344;47.592;9.600;2023-07-09T10:41:54;32.80;99.90
20370;DHT22;10344;47.592;9.600;2023-07-09T10:44:32;32.90;99.90
20370;DHT22;10344;47.592;9.600;2023-07-09T10:47:04;33.00;99.90
20370;DHT22;10344;47.592;9.600;2023-07-09T10:49:39;33.00;99.90
20370;DHT22;10344;47.592;9.600;2023-07-09T10:54:59;32.70;99.90
20370;DHT22;10344;47.592;9.600;2023-07-09T10:57:29;32.50;99.90
20370;DHT22;10344;47.592;9.600;2023-07-09T10:59:55;32.10;99.90
20370;DHT22;10344;47.592;9.600;2023-07-09T11:02:32;31.80;99.90
20370;DHT22;10344;47.592;9.600;2023-07-09T11:04:59;31.50;99.90
20370;DHT22;10344;47.592;9.600;2023-07-09T11:10:01;31.50;99.90
20370;DHT22;10344;47.592;9.600;2023-07-09T11:12:38;31.50;99.90
20370;DHT22;10344;47.592;9.600;2023-07-09T11:17:36;31.60;99.90
20370;DHT22;10344;47.592;9.600;2023-07-09T11:20:54;31.70;99.90
20370;DHT22;10344;47.592;9.600;2023-07-09T11:22:52;32.00;99.90
20370;DHT22;10344;47.592;9.600;2023-07-09T11:26:00;32.30;99.90
20370;DHT22;10344;47.592;9.600;2023-07-09T11:28:15;32.40;99.90
20370;DHT22;10344;47.592;9.600;2023-07-09T11:33:19;32.70;99.80
20370;DHT22;10344;47.592;9.600;2023-07-09T11:35:49;32.70;99.90
20370;DHT22;10344;47.592;9.600;2023-07-09T11:38:19;32.90;99.90
20370;DHT22;10344;47.592;9.600;2023-07-09T11:40:53;33.30;99.90
20370;DHT22;10344;47.592;9.600;2023-07-09T11:43:33;33.90;99.90
20370;DHT22;10344;47.592;9.600;2023-07-09T11:46:45;34.10;99.90
20370;DHT22;10344;47.592;9.600;2023-07-09T11:48:44;34.40;99.90
20370;DHT22;10344;47.592;9.600;2023-07-09T11:51:22;34.70;99.10
20370;DHT22;10344;47.592;9.600;2023-07-09T11:53:52;34.70;98.50
20370;DHT22;10344;47.592;9.600;2023-07-09T11:56:19;34.90;98.30
20370;DHT22;10344;47.592;9.600;2023-07-09T11:58:52;34.70;98.00
20370;DHT22;10344;47.592;9.600;2023-07-09T12:01:24;34.80;97.60
20370;DHT22;10344;47.592;9.600;2023-07-09T12:03:51;34.70;97.70
20370;DHT22;10344;47.592;9.600;2023-07-09T12:06:23;34.40;97.20
20370;DHT22;10344;47.592;9.600;2023-07-09T12:08:50;34.30;98.60
20370;DHT22;10344;47.592;9.600;2023-07-09T12:13:47;34.00;98.70
20370;DHT22;10344;47.592;9.600;2023-07-09T12:16:21;33.90;97.30
20370;DHT22;10344;47.592;9.600;2023-07-09T12:18:49;33.60;96.70
20370;DHT22;10344;47.592;9.600;2023-07-09T12:21:15;33.60;97.50
20370;DHT22;10344;47.592;9.600;2023-07-09T12:23:40;33.80;97.90
20370;DHT22;10344;47.592;9.600;2023-07-09T12:26:10;34.10;98.00
20370;DHT22;10344;47.592;9.600;2023-07-09T12:28:37;34.40;97.20
20370;DHT22;10344;47.592;9.600;2023-07-09T12:31:02;34.50;95.80
20370;DHT22;10344;47.592;9.600;2023-07-09T12:33:28;34.60;96.10
20370;DHT22;10344;47.592;9.600;2023-07-09T12:38:25;34.70;96.60
20370;DHT22;10344;47.592;9.600;2023-07-09T12:40:51;34.90;96.30
20370;DHT22;10344;47.592;9.600;2023-07-09T12:43:25;35.20;96.30
20370;DHT22;10344;47.592;9.600;2023-07-09T12:45:51;35.40;94.60
20370;DHT22;10344;47.592;9.600;2023-07-09T12:48:17;35.40;94.20
20370;DHT22;10344;47.592;9.600;2023-07-09T12:50:47;35.30;93.10
20370;DHT22;10344;47.592;9.600;2023-07-09T12:53:18;35.40;94.00
20370;DHT22;10344;47.592;9.600;2023-07-09T12:55:46;35.50;96.50
20370;DHT22;10344;47.592;9.600;2023-07-09T12:58:20;35.60;95.90
20370;DHT22;10344;47.592;9.600;2023-07-09T13:00:53;35.50;95.90
20370;DHT22;10344;47.592;9.600;2023-07-09T13:03:24;35.30;96.00
20370;DHT22;10344;47.592;9.600;2023-07-09T13:05:51;35.10;93.90
20370;DHT22;10344;47.592;9.600;2023-07-09T13:08:16;34.90;94.10
20370;DHT22;10344;47.592;9.600;2023-07-09T13:10:42;35.10;91.90
20370;DHT22;10344;47.592;9.600;2023-07-09T13:13:11;35.20;90.60
20370;DHT22;10344;47.592;9.600;2023-07-09T13:15:41;35.20;91.60
20370;DHT22;10344;47.592;9.600;2023-07-09T13:18:09;35.50;91.10
20370;DHT22;10344;47.592;9.600;2023-07-09T13:20:37;36.00;90.60
20370;DHT22;10344;47.592;9.600;2023-07-09T13:23:11;36.40;85.80
20370;DHT22;10344;47.592;9.600;2023-07-09T13:25:40;36.20;87.50
20370;DHT22;10344;47.592;9.600;2023-07-09T13:28:10;36.10;92.30
20370;DHT22;10344;47.592;9.600;2023-07-09T13:30:39;35.80;93.40
20370;DHT22;10344;47.592;9.600;2023-07-09T13:33:07;35.80;93.50
20370;DHT22;10344;47.592;9.600;2023-07-09T13:35:33;35.70;92.60
20370;DHT22;10344;47.592;9.600;2023-07-09T13:37:58;35.60;92.90
20370;DHT22;10344;47.592;9.600;2023-07-09T13:40:26;35.50;91.20
20370;DHT22;10344;47.592;9.600;2023-07-09T13:42:53;35.40;91.30
20370;DHT22;10344;47.592;9.600;2023-07-09T13:45:24;35.50;92.10
20370;DHT22;10344;47.592;9.600;2023-07-09T13:47:50;35.80;91.40
20370;DHT22;10344;47.592;9.600;2023-07-09T13:50:17;36.10;88.20
20370;DHT22;10344;47.592;9.600;2023-07-09T13:52:42;36.40;86.80
20370;DHT22;10344;47.592;9.600;2023-07-09T13:55:15;36.50;87.50
20370;DHT22;10344;47.592;9.600;2023-07-09T13:57:43;36.70;85.40
20370;DHT22;10344;47.592;9.600;2023-07-09T14:00:10;36.80;83.10
20370;DHT22;10344;47.592;9.600;2023-07-09T14:02:43;37.00;84.20
20370;DHT22;10344;47.592;9.600;2023-07-09T14:05:12;37.20;80.20
20370;DHT22;10344;47.592;9.600;2023-07-09T14:07:41;37.40;80.80
20370;DHT22;10344;47.592;9.600;2023-07-09T14:10:12;37.20;77.00
20370;DHT22;10344;47.592;9.600;2023-07-09T14:12:42;37.00;79.20
20370;DHT22;10344;47.592;9.600;2023-07-09T14:15:19;36.60;83.00
20370;DHT22;10344;47.592;9.600;2023-07-09T14:17:46;36.40;84.10
20370;DHT22;10344;47.592;9.600;2023-07-09T14:20:14;36.40;80.80
20370;DHT22;10344;47.592;9.600;2023-07-09T14:22:41;36.50;81.30
20370;DHT22;10344;47.592;9.600;2023-07-09T14:25:22;36.50;81.70
20370;DHT22;10344;47.592;9.600;2023-07-09T14:27:52;36.60;83.40
20370;DHT22;10344;47.592;9.600;2023-07-09T14:30:25;36.80;83.80
20370;DHT22;10344;47.592;9.600;2023-07-09T14:32:51;36.80;80.30
20370;DHT22;10344;47.592;9.600;2023-07-09T14:35:18;36.50;82.50
20370;DHT22;10344;47.592;9.600;2023-07-09T14:37:45;36.00;82.30
20370;DHT22;10344;47.592;9.600;2023-07-09T14:40:12;35.50;82.80
20370;DHT22;10344;47.592;9.600;2023-07-09T14:42:38;35.30;84.20
20370;DHT22;10344;47.592;9.600;2023-07-09T14:45:05;35.20;83.10
20370;DHT22;10344;47.592;9.600;2023-07-09T14:47:31;35.20;83.10
20370;DHT22;10344;47.592;9.600;2023-07-09T14:49:56;35.20;80.10
20370;DHT22;10344;47.592;9.600;2023-07-09T14:52:22;35.20;74.80
20370;DHT22;10344;47.592;9.600;2023-07-09T14:54:50;35.20;72.20
20370;DHT22;10344;47.592;9.600;2023-07-09T14:59:48;34.90;69.70
20370;DHT22;10344;47.592;9.600;2023-07-09T15:05:04;34.70;66.30
20370;DHT22;10344;47.592;9.600;2023-07-09T15:07:30;34.90;65.60
20370;DHT22;10344;47.592;9.600;2023-07-09T15:09:57;35.00;64.90
20370;DHT22;10344;47.592;9.600;2023-07-09T15:12:28;35.10;64.70
20370;DHT22;10344;47.592;9.600;2023-07-09T15:15:00;35.20;64.00
20370;DHT22;10344;47.592;9.600;2023-07-09T15:17:28;35.30;66.50
20370;DHT22;10344;47.592;9.600;2023-07-09T15:19:54;35.40;65.40
20370;DHT22;10344;47.592;9.600;2023-07-09T15:22:27;35.50;66.10
20370;DHT22;10344;47.592;9.600;2023-07-09T15:24:54;35.70;64.80
20370;DHT22;10344;47.592;9.600;2023-07-09T15:27:22;35.60;66.00
20370;DHT22;10344;47.592;9.600;2023-07-09T15:29:50;35.80;64.60
20370;DHT22;10344;47.592;9.600;2023-07-09T15:32:16;35.90;65.80
20370;DHT22;10344;47.592;9.600;2023-07-09T15:34:41;36.00;62.70
20370;DHT22;10344;47.592;9.600;2023-07-09T15:37:15;36.10;63.40
20370;DHT22;10344;47.592;9.600;2023-07-09T15:39:42;36.10;63.90
20370;DHT22;10344;47.592;9.600;2023-07-09T15:42:11;35.80;61.30
20370;DHT22;10344;47.592;9.600;2023-07-09T15:44:37;35.50;63.50
20370;DHT22;10344;47.592;9.600;2023-07-09T15:47:03;35.30;65.40
20370;DHT22;10344;47.592;9.600;2023-07-09T15:49:33;34.90;69.50
20370;DHT22;10344;47.592;9.600;2023-07-09T15:52:03;34.50;73.60
20370;DHT22;10344;47.592;9.600;2023-07-09T15:54:29;34.10;77.80
20370;DHT22;10344;47.592;9.600;2023-07-09T15:56:54;33.80;75.90
20370;DHT22;10344;47.592;9.600;2023-07-09T15:59:30;33.80;73.40
20370;DHT22;10344;47.592;9.600;2023-07-09T16:01:58;33.60;75.30
20370;DHT22;10344;47.592;9.600;2023-07-09T16:04:26;33.50;72.90
20370;DHT22;10344;47.592;9.600;2023-07-09T16:06:55;33.50;73.30
20370;DHT22;10344;47.592;9.600;2023-07-09T16:09:20;33.50;73.00
20370;DHT22;10344;47.592;9.600;2023-07-09T16:11:47;33.50;73.70
20370;DHT22;10344;47.592;9.600;2023-07-09T16:16:45;33.90;68.20
20370;DHT22;10344;47.592;9.600;2023-07-09T16:19:16;34.00;72.50
20370;DHT22;10344;47.592;9.600;2023-07-09T16:21:42;34.20;72.40
20370;DHT22;10344;47.592;9.600;2023-07-09T16:24:17;34.30;70.60
20370;DHT22;10344;47.592;9.600;2023-07-09T16:26:43;34.30;69.10
20370;DHT22;10344;47.592;9.600;2023-07-09T16:29:18;34.40;67.60
20370;DHT22;10344;47.592;9.600;2023-07-09T16:31:44;34.40;66.60
20370;DHT22;10344;47.592;9.600;2023-07-09T16:34:10;34.50;66.60
20370;DHT22;10344;47.592;9.600;2023-07-09T16:36:35;34.60;65.80
20370;DHT22;10344;47.592;9.600;2023-07-09T16:39:01;34.60;64.80
20370;DHT22;10344;47.592;9.600;2023-07-09T16:41:30;34.50;65.50
20370;DHT22;10344;47.592;9.600;2023-07-09T16:43:57;34.50;65.70
20370;DHT22;10344;47.592;9.600;2023-07-09T16:46:25;34.50;65.90
20370;DHT22;10344;47.592;9.600;2023-07-09T16:48:53;34.50;66.10
20370;DHT22;10344;47.592;9.600;2023-07-09T16:51:24;34.50;66.30
20370;DHT22;10344;47.592;9.600;2023-07-09T16:53:49;34.50;68.40
20370;DHT22;10344;47.592;9.600;2023-07-09T16:56:17;34.40;68.20
20370;DHT22;10344;47.592;9.600;2023-07-09T16:58:45;34.40;64.90
20370;DHT22;10344;47.592;9.600;2023-07-09T17:01:13;34.30;63.80
20370;DHT22;10344;47.592;9.600;2023-07-09T17:03:39;34.20;64.90
20370;DHT22;10344;47.592;9.600;2023-07-09T17:06:04;34.00;64.70
20370;DHT22;10344;47.592;9.600;2023-07-09T17:08:32;33.80;65.10
20370;DHT22;10344;47.592;9.600;2023-07-09T17:11:01;33.70;64.80
20370;DHT22;10344;47.592;9.600;2023-07-09T17:13:28;33.50;63.90
20370;DHT22;10344;47.592;9.600;2023-07-09T17:15:56;33.30;65.40
20370;DHT22;10344;47.592;9.600;2023-07-09T17:18:26;33.10;67.00
20370;DHT22;10344;47.592;9.600;2023-07-09T17:20:54;32.90;69.10
20370;DHT22;10344;47.592;9.600;2023-07-09T17:23:20;32.80;68.30
20370;DHT22;10344;47.592;9.600;2023-07-09T17:25:47;32.60;69.80
20370;DHT22;10344;47.592;9.600;2023-07-09T17:30:40;32.20;70.30
20370;DHT22;10344;47.592;9.600;2023-07-09T17:33:11;32.10;67.30
20370;DHT22;10344;47.592;9.600;2023-07-09T17:35:37;32.00;68.70
20370;DHT22;10344;47.592;9.600;2023-07-09T17:38:05;31.90;67.20
20370;DHT22;10344;47.592;9.600;2023-07-09T17:40:32;31.90;64.40
20370;DHT22;10344;47.592;9.600;2023-07-09T17:42:58;31.90;63.40
20370;DHT22;10344;47.592;9.600;2023-07-09T17:45:24;31.90;63.80
20370;DHT22;10344;47.592;9.600;2023-07-09T17:47:50;31.90;63.20
20370;DHT22;10344;47.592;9.600;2023-07-09T17:50:17;31.80;64.00
20370;DHT22;10344;47.592;9.600;2023-07-09T17:52:42;31.70;66.10
20370;DHT22;10344;47.592;9.600;2023-07-09T17:55:11;31.60;70.10
20370;DHT22;10344;47.592;9.600;2023-07-09T17:57:37;31.50;73.00
20370;DHT22;10344;47.592;9.600;2023-07-09T18:00:03;31.40;75.40
20370;DHT22;10344;47.592;9.600;2023-07-09T18:02:29;31.30;73.60
20370;DHT22;10344;47.592;9.600;2023-07-09T18:04:58;31.20;77.00
20370;DHT22;10344;47.592;9.600;2023-07-09T18:07:30;31.10;74.00
20370;DHT22;10344;47.592;9.600;2023-07-09T18:09:57;31.00;76.30
20370;DHT22;10344;47.592;9.600;2023-07-09T18:12:24;30.80;78.60
20370;DHT22;10344;47.592;9.600;2023-07-09T18:14:50;30.70;80.00
20370;DHT22;10344;47.592;9.600;2023-07-09T18:17:20;30.50;80.30
20370;DHT22;10344;47.592;9.600;2023-07-09T18:19:49;30.30;79.60
20370;DHT22;10344;47.592;9.600;2023-07-09T18:22:18;30.20;81.60
20370;DHT22;10344;47.592;9.600;2023-07-09T18:24:44;30.00;81.80
20370;DHT22;10344;47.592;9.600;2023-07-09T18:27:19;29.90;79.70
20370;DHT22;10344;47.592;9.600;2023-07-09T18:29:49;29.80;80.50
20370;DHT22;10344;47.592;9.600;2023-07-09T18:32:19;29.70;81.90
20370;DHT22;10344;47.592;9.600;2023-07-09T18:34:48;29.60;80.70
20370;DHT22;10344;47.592;9.600;2023-07-09T18:37:15;29.50;80.60
20370;DHT22;10344;47.592;9.600;2023-07-09T18:39:41;29.40;83.40
20370;DHT22;10344;47.592;9.600;2023-07-09T18:42:10;29.30;85.10
20370;DHT22;10344;47.592;9.600;2023-07-09T18:44:39;29.20;85.70
20370;DHT22;10344;47.592;9.600;2023-07-09T18:47:10;29.10;86.90
20370;DHT22;10344;47.592;9.600;2023-07-09T18:49:38;28.90;87.70
20370;DHT22;10344;47.592;9.600;2023-07-09T18:52:09;28.80;87.80
20370;DHT22;10344;47.592;9.600;2023-07-09T18:54:35;28.60;87.90
20370;DHT22;10344;47.592;9.600;2023-07-09T18:57:00;28.50;88.30
20370;DHT22;10344;47.592;9.600;2023-07-09T18:59:26;28.40;89.30
20370;DHT22;10344;47.592;9.600;2023-07-09T19:01:51;28.30;89.70
20370;DHT22;10344;47.592;9.600;2023-07-09T19:04:17;28.20;90.10
20370;DHT22;10344;47.592;9.600;2023-07-09T19:06:44;28.10;90.60
20370;DHT22;10344;47.592;9.600;2023-07-09T19:09:22;28.10;91.20
20370;DHT22;10344;47.592;9.600;2023-07-09T19:11:48;28.00;91.10
20370;DHT22;10344;47.592;9.600;2023-07-09T19:14:14;27.80;91.20
20370;DHT22;10344;47.592;9.600;2023-07-09T19:16:40;27.70;90.70
20370;DHT22;10344;47.592;9.600;2023-07-09T19:19:11;27.50;91.00
20370;DHT22;10344;47.592;9.600;2023-07-09T19:21:38;27.40;91.60
20370;DHT22;10344;47.592;9.600;2023-07-09T19:24:16;27.20;91.70
20370;DHT22;10344;47.592;9.600;2023-07-09T19:26:42;27.10;92.30
20370;DHT22;10344;47.592;9.600;2023-07-09T19:29:07;27.00;92.80
20370;DHT22;10344;47.592;9.600;2023-07-09T19:31:33;26.80;93.00
20370;DHT22;10344;47.592;9.600;2023-07-09T19:33:58;26.70;92.30
20370;DHT22;10344;47.592;9.600;2023-07-09T19:36:24;26.50;92.20
20370;DHT22;10344;47.592;9.600;2023-07-09T19:38:51;26.50;92.60
20370;DHT22;10344;47.592;9.600;2023-07-09T19:41:17;26.30;92.60
20370;DHT22;10344;47.592;9.600;2023-07-09T19:43:45;26.10;93.10
20370;DHT22;10344;47.592;9.600;2023-07-09T19:46:18;26.10;93.90
20370;DHT22;10344;47.592;9.600;2023-07-09T19:48:44;25.90;93.60
20370;DHT22;10344;47.592;9.600;2023-07-09T19:51:10;25.80;93.70
20370;DHT22;10344;47.592;9.600;2023-07-09T19:53:38;25.60;93.40
20370;DHT22;10344;47.592;9.600;2023-07-09T19:56:03;25.50;93.30
20370;DHT22;10344;47.592;9.600;2023-07-09T19:58:29;25.50;93.70
20370;DHT22;10344;47.592;9.600;2023-07-09T20:00:54;25.40;94.10
20370;DHT22;10344;47.592;9.600;2023-07-09T20:03:25;25.40;93.40
20370;DHT22;10344;47.592;9.600;2023-07-09T20:05:54;25.40;93.70
20370;DHT22;10344;47.592;9.600;2023-07-09T20:08:22;25.30;93.60
20370;DHT22;10344;47.592;9.600;2023-07-09T20:10:49;25.10;93.70
20370;DHT22;10344;47.592;9.600;2023-07-09T20:13:36;25.00;94.50
20370;DHT22;10344;47.592;9.600;2023-07-09T20:16:02;24.90;94.70
20370;DHT22;10344;47.592;9.600;2023-07-09T20:18:27;24.80;94.80
20370;DHT22;10344;47.592;9.600;2023-07-09T20:20:58;24.70;95.20
20370;DHT22;10344;47.592;9.600;2023-07-09T20:23:33;24.60;95.80
20370;DHT22;10344;47.592;9.600;2023-07-09T20:25:58;24.60;96.70
20370;DHT22;10344;47.592;9.600;2023-07-09T20:28:27;24.50;97.20
20370;DHT22;10344;47.592;9.600;2023-07-09T20:30:55;24.40;96.90
20370;DHT22;10344;47.592;9.600;2023-07-09T20:33:23;24.40;96.90
20370;DHT22;10344;47.592;9.600;2023-07-09T20:35:53;24.30;97.00
20370;DHT22;10344;47.592;9.600;2023-07-09T20:38:20;24.20;97.40
20370;DHT22;10344;47.592;9.600;2023-07-09T20:40:48;24.10;97.00
20370;DHT22;10344;47.592;9.600;2023-07-09T20:43:18;24.10;97.20
20370;DHT22;10344;47.592;9.600;2023-07-09T20:45:47;23.90;97.60
20370;DHT22;10344;47.592;9.600;2023-07-09T20:48:12;23.90;98.30
20370;DHT22;10344;47.592;9.600;2023-07-09T20:50:38;23.80;98.50
20370;DHT22;10344;47.592;9.600;2023-07-09T20:53:09;23.80;99.50
20370;DHT22;10344;47.592;9.600;2023-07-09T20:55:37;23.70;99.90
20370;DHT22;10344;47.592;9.600;2023-07-09T20:58:02;23.70;99.90
20370;DHT22;10344;47.592;9.600;2023-07-09T21:00:28;23.70;99.90
20370;DHT22;10344;47.592;9.600;2023-07-09T21:02:53;23.70;99.90
20370;DHT22;10344;47.592;9.600;2023-07-09T21:05:19;23.70;99.90
20370;DHT22;10344;47.592;9.600;2023-07-09T21:07:45;23.60;99.90
20370;DHT22;10344;47.592;9.600;2023-07-09T21:10:16;23.60;99.90
20370;DHT22;10344;47.592;9.600;2023-07-09T21:12:44;23.50;99.90
20370;DHT22;10344;47.592;9.600;2023-07-09T21:15:10;23.50;99.90
20370;DHT22;10344;47.592;9.600;2023-07-09T21:17:38;23.40;99.90
20370;DHT22;10344;47.592;9.600;2023-07-09T21:20:13;23.40;99.90
20370;DHT22;10344;47.592;9.600;2023-07-09T21:22:42;23.30;99.90
20370;DHT22;10344;47.592;9.600;2023-07-09T21:25:21;23.20;99.90
20370;DHT22;10344;47.592;9.600;2023-07-09T21:27:50;23.20;99.90
20370;DHT22;10344;47.592;9.600;2023-07-09T21:30:17;23.20;99.90
20370;DHT22;10344;47.592;9.600;2023-07-09T21:32:43;23.20;99.90
20370;DHT22;10344;47.592;9.600;2023-07-09T21:35:21;23.20;99.90
20370;DHT22;10344;47.592;9.600;2023-07-09T21:37:49;23.20;99.90
20370;DHT22;10344;47.592;9.600;2023-07-09T21:42:50;23.10;99.90
20370;DHT22;10344;47.592;9.600;2023-07-09T21:45:16;23.10;99.90
20370;DHT22;10344;47.592;9.600;2023-07-09T21:47:46;23.00;99.90
20370;DHT22;10344;47.592;9.600;2023-07-09T21:50:18;22.90;99.90
20370;DHT22;10344;47.592;9.600;2023-07-09T21:52:46;22.80;99.90
20370;DHT22;10344;47.592;9.600;2023-07-09T21:55:16;22.70;99.90
20370;DHT22;10344;47.592;9.600;2023-07-09T21:57:44;22.60;99.90
20370;DHT22;10344;47.592;9.600;2023-07-09T22:00:21;22.60;99.90
20370;DHT22;10344;47.592;9.600;2023-07-09T22:02:49;22.50;99.90
20370;DHT22;10344;47.592;9.600;2023-07-09T22:05:16;22.50;99.90
20370;DHT22;10344;47.592;9.600;2023-07-09T22:07:42;22.50;99.90
20370;DHT22;10344;47.592;9.600;2023-07-09T22:10:11;22.50;99.90
20370;DHT22;10344;47.592;9.600;2023-07-09T22:12:40;22.40;99.90
20370;DHT22;10344;47.592;9.600;2023-07-09T22:15:11;22.40;99.90
20370;DHT22;10344;47.592;9.600;2023-07-09T22:17:37;22.30;99.90
20370;DHT22;10344;47.592;9.600;2023-07-09T22:20:03;22.30;99.90
20370;DHT22;10344;47.592;9.600;2023-07-09T22:22:29;22.30;99.90
20370;DHT22;10344;47.592;9.600;2023-07-09T22:24:55;22.30;99.90
20370;DHT22;10344;47.592;9.600;2023-07-09T22:27:21;22.30;99.90
20370;DHT22;10344;47.592;9.600;2023-07-09T22:29:49;22.30;99.90
20370;DHT22;10344;47.592;9.600;2023-07-09T22:32:18;22.30;99.90
20370;DHT22;10344;47.592;9.600;2023-07-09T22:34:44;22.30;99.90
20370;DHT22;10344;47.592;9.600;2023-07-09T22:37:13;22.30;99.90
20370;DHT22;10344;47.592;9.600;2023-07-09T22:39:39;22.20;99.90
20370;DHT22;10344;47.592;9.600;2023-07-09T22:42:05;22.30;99.90
20370;DHT22;10344;47.592;9.600;2023-07-09T22:44:30;22.30;99.90
20370;DHT22;10344;47.592;9.600;2023-07-09T22:46:56;22.30;99.90
20370;DHT22;10344;47.592;9.600;2023-07-09T22:49:22;22.30;99.90
20370;DHT22;10344;47.592;9.600;2023-07-09T22:51:53;22.40;99.90
20370;DHT22;10344;47.592;9.600;2023-07-09T22:54:21;22.50;99.90
20370;DHT22;10344;47.592;9.600;2023-07-09T22:56:47;22.50;99.90
20370;DHT22;10344;47.592;9.600;2023-07-09T22:59:13;22.50;99.90
20370;DHT22;10344;47.592;9.600;2023-07-09T23:01:39;22.50;99.90
20370;DHT22;10344;47.592;9.600;2023-07-09T23:04:08;22.60;99.90
20370;DHT22;10344;47.592;9.600;2023-07-09T23:06:34;22.60;99.90
20370;DHT22;10344;47.592;9.600;2023-07-09T23:09:00;22.50;99.90
20370;DHT22;10344;47.592;9.600;2023-07-09T23:13:51;22.60;99.90
20370;DHT22;10344;47.592;9.600;2023-07-09T23:16:20;22.70;99.90
20370;DHT22;10344;47.592;9.600;2023-07-09T23:18:48;22.70;99.90
20370;DHT22;10344;47.592;9.600;2023-07-09T23:21:14;22.80;99.90
20370;DHT22;10344;47.592;9.600;2023-07-09T23:23:42;22.80;99.90
20370;DHT22;10344;47.592;9.600;2023-07-09T23:26:09;22.80;99.90
20370;DHT22;10344;47.592;9.600;2023-07-09T23:28:35;22.90;99.90
20370;DHT22;10344;47.592;9.600;2023-07-09T23:31:05;23.00;99.90
20370;DHT22;10344;47.592;9.600;2023-07-09T23:33:32;23.00;99.90
20370;DHT22;10344;47.592;9.600;2023-07-09T23:35:58;23.00;99.90
20370;DHT22;10344;47.592;9.600;2023-07-09T23:38:28;23.00;99.90
20370;DHT22;10344;47.592;9.600;2023-07-09T23:40:54;23.00;99.90
20370;DHT22;10344;47.592;9.600;2023-07-09T23:43:23;23.00;99.90
20370;DHT22;10344;47.592;9.600;2023-07-09T23:45:49;23.10;99.90
20370;DHT22;10344;47.592;9.600;2023-07-09T23:48:23;23.10;99.90
20370;DHT22;10344;47.592;9.600;2023-07-09T23:50:57;23.10;99.90
20370;DHT22;10344;47.592;9.600;2023-07-09T23:53:26;23.10;99.90
20370;DHT22;10344;47.592;9.600;2023-07-09T23:55:52;23.10;99.90
20370;DHT22;10344;47.592;9.600;2023-07-09T23:58:19;23.10;99.90
